Airport View

Enter ICAO identifier to see the current METAR for that AWOS.

KFNL for example

KGTF 231300Z 33015G25KT 10SM -RA FEW026 SCT100 BKN110 14/13 A3013

23 Jul 2014 13:36

Phone: 406-452-9844

Other Area AWOS: KGFA - K79S - KHLN - KCTB

TAF AMD KGTF 231211Z 2312/2412 VRB05KT P6SM BKN100 TEMPO 2312/2314 VRB20G30KT -TSRA BKN050CB FM231500 VRB06KT P6SM SKC FM232300 16008KT P6SM SCT080 SCT120 BKN250 TEMPO 2323/2402 VRB30G40KT -TSRA BKN050CB FM240200 20010KT P6SM SCT120 FM240900 23008KT P6SM SKC